createdAt,value
2019-02-07T00:02:29.208Z,3.20
2019-02-07T00:05:00.819Z,3.20
2019-02-07T00:07:31.782Z,2.33
2019-02-07T00:10:03.334Z,2.03
2019-02-07T00:12:35.646Z,2.50
2019-02-07T00:15:12.378Z,1.87
2019-02-07T00:17:43.820Z,1.90
2019-02-07T00:20:17.193Z,2.25
2019-02-07T00:22:51.516Z,2.13
2019-02-07T00:25:22.571Z,2.17
2019-02-07T00:30:34.746Z,2.90
2019-02-07T00:33:06.070Z,3.10
2019-02-07T00:35:37.950Z,1.95
2019-02-07T00:38:09.007Z,2.50
2019-02-07T00:40:41.872Z,1.77
2019-02-07T00:43:13.008Z,2.35
2019-02-07T00:45:44.482Z,2.80
2019-02-07T00:48:16.869Z,2.37
2019-02-07T00:50:49.611Z,2.70
2019-02-07T00:53:20.831Z,2.43
2019-02-07T00:55:52.144Z,2.77
2019-02-07T00:58:25.535Z,1.97
2019-02-07T01:00:57.717Z,2.90
2019-02-07T01:03:31.126Z,2.10
2019-02-07T01:06:02.565Z,2.83
2019-02-07T01:08:35.076Z,2.10
2019-02-07T01:11:07.342Z,2.85
2019-02-07T01:13:38.441Z,1.87
2019-02-07T01:16:09.568Z,2.77
2019-02-07T01:18:40.903Z,2.33
2019-02-07T01:21:16.765Z,1.43
2019-02-07T01:23:48.111Z,2.77
2019-02-07T01:26:21.356Z,2.45
2019-02-07T01:28:57.061Z,3.03
2019-02-07T01:31:28.525Z,1.62
2019-02-07T01:33:59.598Z,1.53
2019-02-07T01:36:30.758Z,1.30
2019-02-07T01:39:02.154Z,2.50
2019-02-07T01:41:34.569Z,1.80
2019-02-07T01:44:07.464Z,2.60
2019-02-07T01:46:38.458Z,2.30
2019-02-07T01:49:10.565Z,2.10
2019-02-07T01:51:42.266Z,3.20
2019-02-07T01:54:15.933Z,1.92
2019-02-07T01:56:48.623Z,3.10
2019-02-07T01:59:19.594Z,2.10
2019-02-07T02:01:50.614Z,2.17
2019-02-07T02:04:21.922Z,1.30
2019-02-07T02:06:53.386Z,2.47
2019-02-07T02:09:25.738Z,2.30
2019-02-07T02:11:57.061Z,2.00
2019-02-07T02:14:28.603Z,2.98
2019-02-07T02:17:00.106Z,2.60
2019-02-07T02:19:31.278Z,2.08
2019-02-07T02:22:02.686Z,1.77
2019-02-07T02:24:34.544Z,2.33
2019-02-07T02:27:07.107Z,1.80
2019-02-07T02:29:39.083Z,1.40
2019-02-07T02:32:10.689Z,2.70
2019-02-07T02:34:42.101Z,1.40
2019-02-07T02:37:13.083Z,1.12
2019-02-07T02:39:44.196Z,2.20
2019-02-07T02:42:15.815Z,2.12
2019-02-07T02:44:46.800Z,2.03
2019-02-07T02:47:19.172Z,1.87
2019-02-07T02:49:52.424Z,2.80
2019-02-07T02:52:23.437Z,2.33
2019-02-07T02:54:56.386Z,2.47
2019-02-07T02:57:27.459Z,2.07
2019-02-07T02:59:58.761Z,1.57
2019-02-07T03:02:40.834Z,2.40
2019-02-07T03:05:31.855Z,1.40
2019-02-07T03:08:23.047Z,1.97
2019-02-07T03:11:19.040Z,2.50
2019-02-07T03:14:24.531Z,1.53
2019-02-07T03:17:09.871Z,2.03
2019-02-07T03:20:08.713Z,1.60
2019-02-07T03:22:57.329Z,1.70
2019-02-07T03:25:55.040Z,1.32
2019-02-07T03:28:48.566Z,1.07
2019-02-07T03:31:38.596Z,1.80
2019-02-07T03:34:26.702Z,2.07
2019-02-07T03:37:13.368Z,1.60
2019-02-07T03:40:06.392Z,1.87
2019-02-07T03:42:56.276Z,1.47
2019-02-07T03:46:02.728Z,1.33
2019-02-07T03:49:05.627Z,1.50
2019-02-07T03:51:49.924Z,1.87
2019-02-07T03:54:42.629Z,1.50
2019-02-07T03:57:22.414Z,2.50
2019-02-07T04:00:25.683Z,2.00
2019-02-07T04:03:13.698Z,1.63
2019-02-07T04:06:08.242Z,1.53
2019-02-07T04:09:07.498Z,1.40
2019-02-07T04:12:10.937Z,1.33
2019-02-07T04:15:02.771Z,1.45
2019-02-07T04:17:52.225Z,1.47
2019-02-07T04:20:37.043Z,2.03
2019-02-07T04:23:29.496Z,1.55
2019-02-07T04:26:28.666Z,1.77
2019-02-07T04:29:18.950Z,1.70
2019-02-07T04:32:02.327Z,1.90
2019-02-07T04:34:49.649Z,1.40
2019-02-07T04:37:28.882Z,1.27
2019-02-07T04:40:18.350Z,1.50
2019-02-07T04:43:28.189Z,2.00
2019-02-07T04:46:26.632Z,2.00
2019-02-07T04:49:00.224Z,1.15
2019-02-07T04:51:53.466Z,1.47
2019-02-07T04:54:46.449Z,2.45
2019-02-07T04:57:36.331Z,1.77
2019-02-07T05:00:21.630Z,2.60
2019-02-07T05:03:05.475Z,1.83
2019-02-07T05:06:00.945Z,2.37
2019-02-07T05:09:02.905Z,1.67
2019-02-07T05:12:07.580Z,1.60
2019-02-07T05:14:52.607Z,1.47
2019-02-07T05:17:57.680Z,1.27
2019-02-07T05:21:00.070Z,2.50
2019-02-07T05:23:49.561Z,1.40
2019-02-07T05:26:27.575Z,1.17
2019-02-07T05:29:32.924Z,1.45
2019-02-07T05:32:25.783Z,1.57
2019-02-07T05:35:22.265Z,1.57
2019-02-07T05:38:18.101Z,1.50
2019-02-07T05:41:28.556Z,0.93
2019-02-07T05:44:17.498Z,1.25
2019-02-07T05:47:22.845Z,2.08
2019-02-07T05:50:11.845Z,1.20
2019-02-07T05:53:03.492Z,1.67
2019-02-07T05:56:01.863Z,2.30
2019-02-07T05:58:50.561Z,0.93
2019-02-07T06:01:42.525Z,1.30
2019-02-07T06:04:25.274Z,2.08
2019-02-07T06:07:14.382Z,2.03
2019-02-07T06:10:06.094Z,1.93
2019-02-07T06:13:05.100Z,1.80
2019-02-07T06:15:57.054Z,1.57
2019-02-07T06:18:52.557Z,1.63
2019-02-07T06:21:52.093Z,0.90
2019-02-07T06:24:42.092Z,1.37
2019-02-07T06:27:26.430Z,1.50
2019-02-07T06:30:22.551Z,0.93
2019-02-07T06:33:25.243Z,0.77
2019-02-07T06:36:19.499Z,1.07
2019-02-07T06:39:22.196Z,1.17
2019-02-07T06:42:10.739Z,1.57
2019-02-07T06:44:56.005Z,1.47
2019-02-07T06:47:47.321Z,0.80
2019-02-07T06:50:31.193Z,2.47
2019-02-07T06:53:20.941Z,2.10
2019-02-07T06:56:10.315Z,1.93
2019-02-07T06:59:06.814Z,1.65
2019-02-07T07:02:13.549Z,1.43
2019-02-07T07:05:05.191Z,1.60
2019-02-07T07:07:55.012Z,1.43
2019-02-07T07:10:45.052Z,1.33
2019-02-07T07:13:28.330Z,1.63
2019-02-07T07:16:14.144Z,1.83
2019-02-07T07:19:06.852Z,1.60
2019-02-07T07:21:57.588Z,1.60
2019-02-07T07:24:46.555Z,1.37
2019-02-07T07:27:38.348Z,1.83
2019-02-07T07:30:24.475Z,2.23
2019-02-07T07:33:15.295Z,2.17
2019-02-07T07:35:56.986Z,2.10
2019-02-07T07:38:40.209Z,1.83
2019-02-07T07:41:41.754Z,2.20
2019-02-07T07:44:31.331Z,1.10
2019-02-07T07:47:21.331Z,0.70
2019-02-07T07:50:11.679Z,1.70
2019-02-07T07:53:01.956Z,0.98
2019-02-07T07:55:52.632Z,1.10
2019-02-07T07:58:50.368Z,1.73
2019-02-07T08:01:39.537Z,2.10
2019-02-07T08:04:28.523Z,2.40
2019-02-07T08:07:18.607Z,1.27
2019-02-07T08:10:17.425Z,1.33
2019-02-07T08:13:08.071Z,1.50
2019-02-07T08:16:01.090Z,1.07
2019-02-07T08:19:09.921Z,1.13
2019-02-07T08:22:09.887Z,0.73
2019-02-07T08:25:12.153Z,1.72
2019-02-07T08:28:02.072Z,1.10
2019-02-07T08:31:04.377Z,1.33
2019-02-07T08:33:53.125Z,1.43
2019-02-07T08:36:36.054Z,1.47
2019-02-07T08:39:40.309Z,1.80
2019-02-07T08:42:39.923Z,1.60
2019-02-07T08:45:21.662Z,1.55
2019-02-07T08:48:10.357Z,1.30
2019-02-07T08:50:59.385Z,1.23
2019-02-07T08:53:44.943Z,1.07
2019-02-07T08:56:26.419Z,1.60
2019-02-07T08:59:20.106Z,1.47
2019-02-07T09:02:25.257Z,1.20
2019-02-07T09:05:14.701Z,1.50
2019-02-07T09:08:23.317Z,1.77
2019-02-07T09:11:12.138Z,1.30
2019-02-07T09:14:11.120Z,1.50
2019-02-07T09:16:59.994Z,1.47
2019-02-07T09:19:48.632Z,0.80
2019-02-07T09:22:27.025Z,1.27
2019-02-07T09:25:09.634Z,1.20
2019-02-07T09:27:58.227Z,1.77
2019-02-07T09:30:54.164Z,1.37
2019-02-07T09:33:41.245Z,1.30
2019-02-07T09:36:32.826Z,1.83
2019-02-07T09:39:23.102Z,1.70
2019-02-07T09:42:26.479Z,1.37
2019-02-07T09:45:16.464Z,1.70
2019-02-07T09:48:05.538Z,1.37
2019-02-07T09:51:04.659Z,2.10
2019-02-07T09:53:48.335Z,2.20
2019-02-07T09:56:38.554Z,1.47
2019-02-07T09:59:27.996Z,1.83
2019-02-07T10:02:11.688Z,1.93
2019-02-07T10:05:03.903Z,1.10
2019-02-07T10:07:50.995Z,2.10
2019-02-07T10:10:30.173Z,1.80
2019-02-07T10:13:18.547Z,2.30
2019-02-07T10:16:26.767Z,1.83
2019-02-07T10:19:12.372Z,1.90
2019-02-07T10:22:01.602Z,1.90
2019-02-07T10:25:00.777Z,1.40
2019-02-07T10:27:49.603Z,2.17
2019-02-07T10:30:39.659Z,2.27
2019-02-07T10:33:22.742Z,1.77
2019-02-07T10:36:22.734Z,2.13
2019-02-07T10:39:21.923Z,1.60
2019-02-07T10:42:30.220Z,2.20
2019-02-07T10:45:12.548Z,1.82
2019-02-07T10:48:04.159Z,1.67
2019-02-07T10:50:54.044Z,1.87
2019-02-07T10:53:38.469Z,3.03
2019-02-07T10:56:33.106Z,1.93
2019-02-07T10:59:24.078Z,2.70
2019-02-07T11:02:12.943Z,2.77
2019-02-07T11:05:02.874Z,3.27
2019-02-07T11:07:52.076Z,3.47
2019-02-07T11:10:49.802Z,2.65
2019-02-07T11:13:38.738Z,2.67
2019-02-07T11:16:27.680Z,1.90
2019-02-07T11:19:21.313Z,2.70
2019-02-07T11:22:09.941Z,2.67
2019-02-07T11:25:01.249Z,2.27
2019-02-07T11:28:10.163Z,2.83
2019-02-07T11:30:54.282Z,2.77
2019-02-07T11:33:39.761Z,1.98
2019-02-07T11:36:34.209Z,2.63
2019-02-07T11:39:29.738Z,2.57
2019-02-07T11:42:19.252Z,2.33
2019-02-07T11:45:05.899Z,1.98
2019-02-07T11:47:56.163Z,2.47
2019-02-07T11:50:38.917Z,3.53
2019-02-07T11:53:34.240Z,2.77
2019-02-07T11:56:42.903Z,2.40
2019-02-07T11:59:26.165Z,2.25
2019-02-07T12:02:16.258Z,2.60
2019-02-07T12:04:58.308Z,2.72
2019-02-07T12:07:52.040Z,1.80
2019-02-07T12:10:39.290Z,1.83
2019-02-07T12:13:29.319Z,2.23
2019-02-07T12:16:10.487Z,2.23
2019-02-07T12:19:03.838Z,2.60
2019-02-07T12:21:52.906Z,2.53
2019-02-07T12:24:48.753Z,2.27
2019-02-07T12:27:36.558Z,3.20
2019-02-07T12:30:30.530Z,2.13
2019-02-07T12:33:11.939Z,2.27
2019-02-07T12:36:09.109Z,2.07
2019-02-07T12:38:48.052Z,2.00
2019-02-07T12:41:52.205Z,1.70
2019-02-07T12:44:32.209Z,1.90
2019-02-07T12:47:34.543Z,1.87
2019-02-07T12:50:40.718Z,1.40
2019-02-07T12:53:20.416Z,0.90
2019-02-07T12:56:13.877Z,1.60
2019-02-07T12:58:59.583Z,1.33
2019-02-07T13:01:52.431Z,1.80
2019-02-07T13:04:41.307Z,1.10
2019-02-07T13:07:35.305Z,2.12
2019-02-07T13:10:41.705Z,0.97
2019-02-07T13:13:26.619Z,1.73
2019-02-07T13:16:14.311Z,1.10
2019-02-07T13:19:05.475Z,1.33
2019-02-07T13:21:59.161Z,1.30
2019-02-07T13:24:51.073Z,1.23
2019-02-07T13:27:41.553Z,1.50
2019-02-07T13:30:26.130Z,1.10
2019-02-07T13:33:15.240Z,0.97
2019-02-07T13:35:59.393Z,1.20
2019-02-07T13:38:48.513Z,1.10
2019-02-07T13:41:41.337Z,0.70
2019-02-07T13:44:38.075Z,1.37
2019-02-07T13:47:28.215Z,0.40
2019-02-07T13:50:18.707Z,0.43
2019-02-07T13:53:03.907Z,0.70
2019-02-07T13:55:52.257Z,0.50
2019-02-07T13:58:39.400Z,0.40
2019-02-07T14:01:28.604Z,0.77
2019-02-07T14:04:22.147Z,0.30
2019-02-07T14:07:11.033Z,0.40
2019-02-07T14:09:52.562Z,0.50
2019-02-07T14:12:45.845Z,0.70
2019-02-07T14:15:53.707Z,0.60
2019-02-07T14:18:35.668Z,0.45
2019-02-07T14:21:15.860Z,0.50
2019-02-07T14:23:54.214Z,0.40
2019-02-07T14:26:41.811Z,0.33
2019-02-07T14:29:29.173Z,0.20
2019-02-07T14:32:15.858Z,0.43
2019-02-07T14:35:04.851Z,0.30
2019-02-07T14:38:02.366Z,0.40
2019-02-07T14:40:47.219Z,0.30
2019-02-07T14:43:29.656Z,0.30
2019-02-07T14:46:19.912Z,0.40
2019-02-07T14:48:51.031Z,0.40
2019-02-07T14:51:22.325Z,0.40
2019-02-07T14:53:53.429Z,0.30
2019-02-07T14:56:26.050Z,0.30
2019-02-07T14:58:57.127Z,0.40
2019-02-07T15:01:29.943Z,0.43
2019-02-07T15:04:04.050Z,0.40
2019-02-07T15:06:37.428Z,0.20
2019-02-07T15:09:21.159Z,0.40
2019-02-07T15:11:52.195Z,0.42
2019-02-07T15:14:25.394Z,0.40
2019-02-07T15:16:56.678Z,0.40
2019-02-07T15:19:27.928Z,0.30
2019-02-07T15:21:59.251Z,0.30
2019-02-07T15:24:30.275Z,0.57
2019-02-07T15:27:01.491Z,0.30
2019-02-07T15:29:32.600Z,0.50
2019-02-07T15:32:03.641Z,0.33
2019-02-07T15:34:35.084Z,0.37
2019-02-07T15:37:06.659Z,0.50
2019-02-07T15:39:42.336Z,0.50
2019-02-07T15:42:15.238Z,0.40
2019-02-07T15:44:48.151Z,0.30
2019-02-07T15:47:19.193Z,0.40
2019-02-07T15:49:51.770Z,0.40
2019-02-07T15:52:22.920Z,0.40
2019-02-07T15:54:57.832Z,0.70
2019-02-07T15:57:30.412Z,0.90
2019-02-07T16:00:07.826Z,0.30
2019-02-07T16:02:43.922Z,0.40
2019-02-07T16:05:18.474Z,0.40
2019-02-07T16:07:50.144Z,0.80
2019-02-07T16:10:21.244Z,0.70
2019-02-07T16:13:02.536Z,1.67
2019-02-07T16:15:36.056Z,0.50
2019-02-07T16:18:07.265Z,0.47
2019-02-07T16:20:48.740Z,3.60
2019-02-07T16:23:12.826Z,4.10
2019-02-07T16:25:43.964Z,2.17
2019-02-07T16:28:15.361Z,1.94
2019-02-07T16:30:47.473Z,0.93
2019-02-07T16:33:18.621Z,1.00
2019-02-07T16:35:50.261Z,2.43
2019-02-07T16:38:21.438Z,1.87
2019-02-07T16:40:53.787Z,1.67
2019-02-07T16:43:26.103Z,0.97
2019-02-07T16:45:57.249Z,0.60
2019-02-07T16:48:28.289Z,0.60
2019-02-07T16:51:00.575Z,0.30
2019-02-07T16:53:31.919Z,0.63
2019-02-07T16:56:03.381Z,0.83
2019-02-07T16:58:34.490Z,0.80
2019-02-07T17:01:08.282Z,0.70
2019-02-07T17:03:40.691Z,0.90
2019-02-07T17:06:11.849Z,0.73
2019-02-07T17:08:43.415Z,0.67
2019-02-07T17:11:15.079Z,0.40
2019-02-07T17:13:46.123Z,0.60
2019-02-07T17:16:21.667Z,0.83
2019-02-07T17:18:54.596Z,0.70
2019-02-07T17:21:28.192Z,1.37
2019-02-07T17:23:59.157Z,1.20
2019-02-07T17:26:30.237Z,0.47
2019-02-07T17:29:02.344Z,1.03
2019-02-07T17:31:33.867Z,0.83
2019-02-07T17:34:06.183Z,0.50
2019-02-07T17:36:39.952Z,0.40
2019-02-07T17:39:12.586Z,0.70
2019-02-07T17:41:43.859Z,0.83
2019-02-07T17:44:15.035Z,0.60
2019-02-07T17:46:46.372Z,0.90
2019-02-07T17:49:19.043Z,0.50
2019-02-07T17:51:50.128Z,1.27
2019-02-07T17:54:21.414Z,0.68
2019-02-07T17:56:52.597Z,0.53
2019-02-07T17:59:24.131Z,0.70
2019-02-07T18:01:57.655Z,0.60
2019-02-07T18:04:30.058Z,0.60
2019-02-07T18:07:02.124Z,0.67
2019-02-07T18:09:34.283Z,0.50
2019-02-07T18:12:06.511Z,0.50
2019-02-07T18:14:37.466Z,0.63
2019-02-07T18:17:08.517Z,0.57
2019-02-07T18:19:40.353Z,0.65
2019-02-07T18:22:11.432Z,1.30
2019-02-07T18:24:44.973Z,1.00
2019-02-07T18:27:19.658Z,0.80
2019-02-07T18:29:50.763Z,0.70
2019-02-07T18:32:24.166Z,0.53
2019-02-07T18:34:55.731Z,0.75
2019-02-07T18:37:29.467Z,1.30
2019-02-07T18:40:02.294Z,1.00
2019-02-07T18:42:33.729Z,0.77
2019-02-07T18:45:06.330Z,1.30
2019-02-07T18:47:39.863Z,1.30
2019-02-07T18:50:17.802Z,0.53
2019-02-07T18:52:49.760Z,0.60
2019-02-07T18:55:20.795Z,0.50
2019-02-07T18:57:52.225Z,0.70
2019-02-07T19:00:30.067Z,0.93
2019-02-07T19:03:03.790Z,0.43
2019-02-07T19:05:35.116Z,0.43
2019-02-07T19:08:09.072Z,0.60
2019-02-07T19:10:41.950Z,0.47
2019-02-07T19:13:14.384Z,0.57
2019-02-07T19:16:06.231Z,0.40
2019-02-07T19:18:38.385Z,0.70
2019-02-07T19:21:10.456Z,0.37
2019-02-07T19:23:42.052Z,0.43
2019-02-07T19:26:13.587Z,1.00
2019-02-07T19:28:46.982Z,1.17
2019-02-07T19:31:18.714Z,0.80
2019-02-07T19:33:49.972Z,0.50
2019-02-07T19:36:21.504Z,0.50
2019-02-07T19:38:53.981Z,0.30
2019-02-07T19:41:25.290Z,0.40
2019-02-07T19:43:57.581Z,0.40
2019-02-07T19:46:29.588Z,0.60
2019-02-07T19:49:00.852Z,0.60
2019-02-07T19:51:32.841Z,0.33
2019-02-07T19:54:04.916Z,0.43
2019-02-07T19:56:36.418Z,0.63
2019-02-07T19:59:08.405Z,0.60
2019-02-07T20:01:40.219Z,0.80
2019-02-07T20:04:11.585Z,0.50
2019-02-07T20:06:44.869Z,0.88
2019-02-07T20:09:17.126Z,0.50
2019-02-07T20:11:49.617Z,0.53
2019-02-07T20:14:21.156Z,0.70
2019-02-07T20:16:52.863Z,0.47
2019-02-07T20:19:24.866Z,0.43
2019-02-07T20:21:56.082Z,0.47
2019-02-07T20:24:27.319Z,0.97
2019-02-07T20:26:59.668Z,0.60
2019-02-07T20:29:30.831Z,0.67
2019-02-07T20:32:02.242Z,0.67
2019-02-07T20:34:33.581Z,0.70
2019-02-07T20:37:04.743Z,0.83
2019-02-07T20:39:36.338Z,0.87
2019-02-07T20:42:07.463Z,0.70
2019-02-07T20:44:39.311Z,0.93
2019-02-07T20:47:10.716Z,1.95
2019-02-07T20:49:41.802Z,1.10
2019-02-07T20:52:13.164Z,1.00
2019-02-07T20:54:44.810Z,1.07
2019-02-07T20:57:15.913Z,0.80
2019-02-07T20:59:47.363Z,0.93
2019-02-07T21:02:18.662Z,1.00
2019-02-07T21:04:49.686Z,0.90
2019-02-07T21:07:21.108Z,1.17
2019-02-07T21:09:52.465Z,1.30
2019-02-07T21:12:23.646Z,0.77
2019-02-07T21:14:54.744Z,0.83
2019-02-07T21:17:25.961Z,1.13
2019-02-07T21:19:57.002Z,0.60
2019-02-07T21:22:34.487Z,1.23
2019-02-07T21:25:01.173Z,1.10
2019-02-07T21:27:32.516Z,0.70
2019-02-07T21:30:03.585Z,1.57
2019-02-07T21:32:35.865Z,0.53
2019-02-07T21:35:08.706Z,1.30
2019-02-07T21:37:39.855Z,1.00
2019-02-07T21:40:13.678Z,0.80
2019-02-07T21:42:45.024Z,1.32
2019-02-07T21:45:16.979Z,1.33
2019-02-07T21:47:48.356Z,0.90
2019-02-07T21:50:22.008Z,1.05
2019-02-07T21:52:53.412Z,1.30
2019-02-07T21:55:27.282Z,1.10
2019-02-07T21:57:58.692Z,1.30
2019-02-07T22:00:41.540Z,1.23
2019-02-07T22:03:14.896Z,1.50
2019-02-07T22:05:46.213Z,0.93
2019-02-07T22:08:20.077Z,1.00
2019-02-07T22:10:51.128Z,0.60
2019-02-07T22:13:22.432Z,0.80
2019-02-07T22:15:53.839Z,0.87
2019-02-07T22:18:25.526Z,1.57
2019-02-07T22:20:56.610Z,1.50
2019-02-07T22:23:27.722Z,1.00
2019-02-07T22:25:59.621Z,1.30
2019-02-07T22:28:31.042Z,0.73
2019-02-07T22:31:02.715Z,1.07
2019-02-07T22:33:33.967Z,1.27
2019-02-07T22:36:05.490Z,1.20
2019-02-07T22:38:37.120Z,0.60
2019-02-07T22:41:08.172Z,1.10
2019-02-07T22:43:39.393Z,1.23
2019-02-07T22:46:10.447Z,1.13
2019-02-07T22:48:41.707Z,1.30
2019-02-07T22:51:13.138Z,2.00
2019-02-07T22:53:45.158Z,0.98
2019-02-07T22:56:16.548Z,0.63
2019-02-07T22:58:49.144Z,0.80
2019-02-07T23:01:54.083Z,0.80
2019-02-07T23:04:27.743Z,1.03
2019-02-07T23:06:59.520Z,0.87
2019-02-07T23:09:31.818Z,1.03
2019-02-07T23:12:03.019Z,0.97
2019-02-07T23:14:34.997Z,1.27
2019-02-07T23:17:06.669Z,1.02
2019-02-07T23:19:40.053Z,0.80
2019-02-07T23:22:11.173Z,0.85
2019-02-07T23:24:43.472Z,1.30
2019-02-07T23:27:16.480Z,1.05
2019-02-07T23:29:50.185Z,0.87
2019-02-07T23:32:22.539Z,0.97
2019-02-07T23:34:57.119Z,1.40
2019-02-07T23:37:29.152Z,1.30
2019-02-07T23:40:00.694Z,1.27
2019-02-07T23:42:32.064Z,1.30
2019-02-07T23:45:07.073Z,1.10
2019-02-07T23:47:38.208Z,1.00
2019-02-07T23:50:10.148Z,1.53
2019-02-07T23:52:43.377Z,1.12
2019-02-07T23:55:15.746Z,1.10
2019-02-07T23:57:47.375Z,1.33
